sensor_id;sensor_type;location;lat;lon;timestamp;pressure;altitude;pressure_sealevel;temperature;humidity
69145;BME280;56251;50.324;17.574;2023-11-18T00:00:02;102043.48;;;4.50;90.14
69145;BME280;56251;50.324;17.574;2023-11-18T00:02:14;102043.09;;;4.54;90.41
69145;BME280;56251;50.324;17.574;2023-11-18T00:03:16;102048.12;;;4.66;89.80
69145;BME280;56251;50.324;17.574;2023-11-18T00:05:21;102041.88;;;4.50;89.76
69145;BME280;56251;50.324;17.574;2023-11-18T00:06:22;102041.65;;;4.46;89.71
69145;BME280;56251;50.324;17.574;2023-11-18T00:08:29;102043.90;;;4.67;90.09
69145;BME280;56251;50.324;17.574;2023-11-18T00:09:28;102043.54;;;4.66;89.84
69145;BME280;56251;50.324;17.574;2023-11-18T00:11:36;102046.12;;;4.61;89.43
69145;BME280;56251;50.324;17.574;2023-11-18T00:12:35;102045.61;;;4.60;89.38
69145;BME280;56251;50.324;17.574;2023-11-18T00:14:44;102042.95;;;4.52;90.10
69145;BME280;56251;50.324;17.574;2023-11-18T00:15:41;102042.98;;;4.59;90.03
69145;BME280;56251;50.324;17.574;2023-11-18T00:17:51;102041.45;;;4.63;89.90
69145;BME280;56251;50.324;17.574;2023-11-18T00:18:49;102042.76;;;4.57;90.03
69145;BME280;56251;50.324;17.574;2023-11-18T00:21:01;102042.00;;;4.69;90.08
69145;BME280;56251;50.324;17.574;2023-11-18T00:21:55;102038.21;;;4.74;89.61
69145;BME280;56251;50.324;17.574;2023-11-18T00:24:08;102045.47;;;4.71;89.59
69145;BME280;56251;50.324;17.574;2023-11-18T00:25:02;102043.20;;;4.59;89.97
69145;BME280;56251;50.324;17.574;2023-11-18T00:27:15;102038.02;;;4.56;90.95
69145;BME280;56251;50.324;17.574;2023-11-18T00:28:16;102037.30;;;4.53;91.30
69145;BME280;56251;50.324;17.574;2023-11-18T00:30:21;102036.98;;;4.63;91.65
69145;BME280;56251;50.324;17.574;2023-11-18T00:31:24;102035.99;;;4.67;91.09
69145;BME280;56251;50.324;17.574;2023-11-18T00:33:27;102039.62;;;4.69;90.89
69145;BME280;56251;50.324;17.574;2023-11-18T00:34:30;102039.59;;;4.67;90.63
69145;BME280;56251;50.324;17.574;2023-11-18T00:36:34;102041.81;;;4.68;90.53
69145;BME280;56251;50.324;17.574;2023-11-18T00:37:36;102042.81;;;4.66;90.68
69145;BME280;56251;50.324;17.574;2023-11-18T00:39:40;102038.50;;;4.66;90.44
69145;BME280;56251;50.324;17.574;2023-11-18T00:40:42;102042.84;;;4.63;90.61
69145;BME280;56251;50.324;17.574;2023-11-18T00:42:47;102040.27;;;4.53;90.98
69145;BME280;56251;50.324;17.574;2023-11-18T00:43:49;102042.16;;;4.47;90.68
69145;BME280;56251;50.324;17.574;2023-11-18T00:45:53;102043.74;;;4.41;91.28
69145;BME280;56251;50.324;17.574;2023-11-18T00:46:55;102048.06;;;4.50;91.35
69145;BME280;56251;50.324;17.574;2023-11-18T00:48:59;102048.09;;;4.57;91.12
69145;BME280;56251;50.324;17.574;2023-11-18T00:50:03;102043.67;;;4.66;90.85
69145;BME280;56251;50.324;17.574;2023-11-18T00:52:06;102047.27;;;4.63;90.28
69145;BME280;56251;50.324;17.574;2023-11-18T00:53:10;102045.91;;;4.59;90.10
69145;BME280;56251;50.324;17.574;2023-11-18T00:55:12;102053.22;;;4.57;90.06
69145;BME280;56251;50.324;17.574;2023-11-18T00:56:16;102046.32;;;4.54;90.19
69145;BME280;56251;50.324;17.574;2023-11-18T00:58:18;102051.09;;;4.43;90.29
69145;BME280;56251;50.324;17.574;2023-11-18T00:59:24;102040.99;;;4.41;90.53
69145;BME280;56251;50.324;17.574;2023-11-18T01:01:25;102051.22;;;4.35;91.07
69145;BME280;56251;50.324;17.574;2023-11-18T01:02:30;102048.38;;;4.34;91.20
69145;BME280;56251;50.324;17.574;2023-11-18T01:04:31;102043.02;;;4.20;92.36
69145;BME280;56251;50.324;17.574;2023-11-18T01:05:36;102042.59;;;4.28;92.63
69145;BME280;56251;50.324;17.574;2023-11-18T01:07:39;102048.37;;;4.37;92.72
69145;BME280;56251;50.324;17.574;2023-11-18T01:08:44;102045.07;;;4.40;92.46
69145;BME280;56251;50.324;17.574;2023-11-18T01:10:51;102050.37;;;4.43;91.70
69145;BME280;56251;50.324;17.574;2023-11-18T01:11:50;102054.01;;;4.40;91.79
69145;BME280;56251;50.324;17.574;2023-11-18T01:13:57;102050.56;;;4.48;92.34
69145;BME280;56251;50.324;17.574;2023-11-18T01:14:57;102052.16;;;4.54;91.90
69145;BME280;56251;50.324;17.574;2023-11-18T01:17:04;102053.42;;;4.53;91.30
69145;BME280;56251;50.324;17.574;2023-11-18T01:18:03;102058.63;;;4.57;91.17
69145;BME280;56251;50.324;17.574;2023-11-18T01:20:11;102056.76;;;4.56;90.87
69145;BME280;56251;50.324;17.574;2023-11-18T01:21:10;102059.48;;;4.58;90.51
69145;BME280;56251;50.324;17.574;2023-11-18T01:23:19;102056.90;;;4.59;90.16
69145;BME280;56251;50.324;17.574;2023-11-18T01:24:17;102052.98;;;4.58;89.86
69145;BME280;56251;50.324;17.574;2023-11-18T01:26:25;102054.94;;;4.54;89.61
69145;BME280;56251;50.324;17.574;2023-11-18T01:27:29;102055.20;;;4.50;89.89
69145;BME280;56251;50.324;17.574;2023-11-18T01:29:32;102048.97;;;4.45;90.51
69145;BME280;56251;50.324;17.574;2023-11-18T01:30:35;102052.95;;;4.57;90.54
69145;BME280;56251;50.324;17.574;2023-11-18T01:32:39;102048.42;;;4.67;90.43
69145;BME280;56251;50.324;17.574;2023-11-18T01:33:41;102049.06;;;4.59;90.51
69145;BME280;56251;50.324;17.574;2023-11-18T01:35:45;102048.68;;;4.69;89.81
69145;BME280;56251;50.324;17.574;2023-11-18T01:36:50;102050.28;;;4.65;89.86
69145;BME280;56251;50.324;17.574;2023-11-18T01:38:51;102045.77;;;4.63;90.48
69145;BME280;56251;50.324;17.574;2023-11-18T01:39:56;102050.04;;;4.68;90.33
69145;BME280;56251;50.324;17.574;2023-11-18T01:41:59;102051.45;;;4.53;90.40
69145;BME280;56251;50.324;17.574;2023-11-18T01:43:02;102051.23;;;4.45;90.92
69145;BME280;56251;50.324;17.574;2023-11-18T01:45:13;102053.41;;;4.64;90.81
69145;BME280;56251;50.324;17.574;2023-11-18T01:46:10;102054.80;;;4.56;90.73
69145;BME280;56251;50.324;17.574;2023-11-18T01:48:21;102056.73;;;4.54;91.13
69145;BME280;56251;50.324;17.574;2023-11-18T01:49:18;102058.07;;;4.62;90.87
69145;BME280;56251;50.324;17.574;2023-11-18T01:51:28;102055.23;;;4.61;90.20
69145;BME280;56251;50.324;17.574;2023-11-18T01:52:27;102058.69;;;4.60;89.78
69145;BME280;56251;50.324;17.574;2023-11-18T01:54:36;102058.52;;;4.48;89.19
69145;BME280;56251;50.324;17.574;2023-11-18T01:55:35;102057.25;;;4.42;89.52
69145;BME280;56251;50.324;17.574;2023-11-18T01:57:45;102065.09;;;4.39;90.02
69145;BME280;56251;50.324;17.574;2023-11-18T01:58:42;102060.83;;;4.41;90.28
69145;BME280;56251;50.324;17.574;2023-11-18T02:00:51;102057.27;;;4.46;90.42
69145;BME280;56251;50.324;17.574;2023-11-18T02:01:52;102063.05;;;4.47;90.34
69145;BME280;56251;50.324;17.574;2023-11-18T02:04:03;102059.52;;;4.57;90.40
69145;BME280;56251;50.324;17.574;2023-11-18T02:05:00;102059.95;;;4.56;89.62
69145;BME280;56251;50.324;17.574;2023-11-18T02:07:11;102061.92;;;4.49;89.19
69145;BME280;56251;50.324;17.574;2023-11-18T02:08:11;102060.00;;;4.54;89.06
69145;BME280;56251;50.324;17.574;2023-11-18T02:10:19;102061.77;;;4.62;88.23
69145;BME280;56251;50.324;17.574;2023-11-18T02:11:34;102069.91;;;4.79;87.75
69145;BME280;56251;50.324;17.574;2023-11-18T02:13:31;102073.85;;;4.61;87.77
69145;BME280;56251;50.324;17.574;2023-11-18T02:14:40;102078.71;;;4.64;88.15
69145;BME280;56251;50.324;17.574;2023-11-18T02:16:38;102078.59;;;4.60;88.23
69145;BME280;56251;50.324;17.574;2023-11-18T02:17:47;102080.98;;;4.55;88.88
69145;BME280;56251;50.324;17.574;2023-11-18T02:19:45;102087.16;;;4.51;89.50
69145;BME280;56251;50.324;17.574;2023-11-18T02:20:57;102087.53;;;4.50;89.48
69145;BME280;56251;50.324;17.574;2023-11-18T02:22:56;102083.88;;;4.46;90.12
69145;BME280;56251;50.324;17.574;2023-11-18T02:24:04;102090.36;;;4.49;90.31
69145;BME280;56251;50.324;17.574;2023-11-18T02:26:04;102089.99;;;4.44;89.79
69145;BME280;56251;50.324;17.574;2023-11-18T02:27:12;102090.19;;;4.34;90.81
69145;BME280;56251;50.324;17.574;2023-11-18T02:29:11;102088.45;;;4.30;91.77
69145;BME280;56251;50.324;17.574;2023-11-18T02:30:20;102090.83;;;4.41;91.58
69145;BME280;56251;50.324;17.574;2023-11-18T02:33:33;102089.20;;;4.49;91.50
69145;BME280;56251;50.324;17.574;2023-11-18T02:35:38;102094.30;;;4.50;91.09
69145;BME280;56251;50.324;17.574;2023-11-18T02:36:46;102089.27;;;4.46;91.38
69145;BME280;56251;50.324;17.574;2023-11-18T02:38:44;102097.18;;;4.41;92.32
69145;BME280;56251;50.324;17.574;2023-11-18T02:39:56;102100.27;;;4.40;92.31
69145;BME280;56251;50.324;17.574;2023-11-18T02:41:52;102100.47;;;4.26;93.45
69145;BME280;56251;50.324;17.574;2023-11-18T02:43:01;102093.27;;;4.19;94.25
69145;BME280;56251;50.324;17.574;2023-11-18T02:45:06;102099.38;;;4.14;94.38
69145;BME280;56251;50.324;17.574;2023-11-18T02:46:11;102098.12;;;4.11;94.62
69145;BME280;56251;50.324;17.574;2023-11-18T02:48:12;102100.38;;;4.16;94.82
69145;BME280;56251;50.324;17.574;2023-11-18T02:49:18;102100.38;;;4.11;94.49
69145;BME280;56251;50.324;17.574;2023-11-18T02:51:20;102097.92;;;4.23;94.17
69145;BME280;56251;50.324;17.574;2023-11-18T02:52:24;102102.60;;;4.17;94.10
69145;BME280;56251;50.324;17.574;2023-11-18T02:54:27;102108.05;;;4.03;94.05
69145;BME280;56251;50.324;17.574;2023-11-18T02:55:31;102107.19;;;4.11;94.82
69145;BME280;56251;50.324;17.574;2023-11-18T02:57:35;102103.93;;;4.09;94.68
69145;BME280;56251;50.324;17.574;2023-11-18T02:58:37;102105.43;;;4.09;94.73
69145;BME280;56251;50.324;17.574;2023-11-18T03:00:41;102110.70;;;4.08;94.90
69145;BME280;56251;50.324;17.574;2023-11-18T03:01:43;102110.27;;;4.13;95.05
69145;BME280;56251;50.324;17.574;2023-11-18T03:03:52;102115.86;;;4.12;94.96
69145;BME280;56251;50.324;17.574;2023-11-18T03:04:50;102114.62;;;4.21;94.71
69145;BME280;56251;50.324;17.574;2023-11-18T03:07:00;102114.88;;;4.26;94.21
69145;BME280;56251;50.324;17.574;2023-11-18T03:07:56;102110.15;;;4.24;94.09
69145;BME280;56251;50.324;17.574;2023-11-18T03:10:07;102115.70;;;4.15;94.49
69145;BME280;56251;50.324;17.574;2023-11-18T03:11:03;102116.78;;;4.14;94.57
69145;BME280;56251;50.324;17.574;2023-11-18T03:13:15;102118.29;;;4.27;94.22
69145;BME280;56251;50.324;17.574;2023-11-18T03:14:10;102120.44;;;4.30;93.78
69145;BME280;56251;50.324;17.574;2023-11-18T03:16:21;102126.04;;;4.23;93.28
69145;BME280;56251;50.324;17.574;2023-11-18T03:17:17;102126.37;;;4.23;93.23
69145;BME280;56251;50.324;17.574;2023-11-18T03:19:27;102126.66;;;4.21;93.17
69145;BME280;56251;50.324;17.574;2023-11-18T03:20:28;102127.48;;;4.24;92.37
69145;BME280;56251;50.324;17.574;2023-11-18T03:22:34;102134.98;;;4.26;92.69
69145;BME280;56251;50.324;17.574;2023-11-18T03:23:34;102130.05;;;4.30;92.72
69145;BME280;56251;50.324;17.574;2023-11-18T03:25:40;102143.02;;;4.38;91.86
69145;BME280;56251;50.324;17.574;2023-11-18T03:26:41;102141.87;;;4.35;91.53
69145;BME280;56251;50.324;17.574;2023-11-18T03:28:47;102128.83;;;4.41;91.38
69145;BME280;56251;50.324;17.574;2023-11-18T03:29:47;102130.33;;;4.38;91.16
69145;BME280;56251;50.324;17.574;2023-11-18T03:31:53;102133.77;;;4.32;91.23
69145;BME280;56251;50.324;17.574;2023-11-18T03:32:53;102138.33;;;4.38;90.92
69145;BME280;56251;50.324;17.574;2023-11-18T03:34:59;102132.44;;;4.47;91.01
69145;BME280;56251;50.324;17.574;2023-11-18T03:36:01;102134.53;;;4.30;90.96
69145;BME280;56251;50.324;17.574;2023-11-18T03:38:05;102135.45;;;4.29;91.43
69145;BME280;56251;50.324;17.574;2023-11-18T03:39:07;102131.08;;;4.26;91.62
69145;BME280;56251;50.324;17.574;2023-11-18T03:41:11;102136.06;;;4.29;91.41
69145;BME280;56251;50.324;17.574;2023-11-18T03:42:13;102138.70;;;4.36;91.21
69145;BME280;56251;50.324;17.574;2023-11-18T03:44:18;102133.69;;;4.38;90.79
69145;BME280;56251;50.324;17.574;2023-11-18T03:45:20;102136.34;;;4.30;90.88
69145;BME280;56251;50.324;17.574;2023-11-18T03:47:25;102150.00;;;4.20;91.47
69145;BME280;56251;50.324;17.574;2023-11-18T03:48:27;102144.07;;;4.27;91.53
69145;BME280;56251;50.324;17.574;2023-11-18T03:50:31;102143.57;;;4.25;91.77
69145;BME280;56251;50.324;17.574;2023-11-18T03:51:33;102147.45;;;4.19;92.33
69145;BME280;56251;50.324;17.574;2023-11-18T03:53:37;102150.88;;;4.20;92.13
69145;BME280;56251;50.324;17.574;2023-11-18T03:54:39;102157.42;;;4.05;92.47
69145;BME280;56251;50.324;17.574;2023-11-18T03:56:43;102160.59;;;4.09;93.56
69145;BME280;56251;50.324;17.574;2023-11-18T03:57:45;102162.98;;;4.05;93.55
69145;BME280;56251;50.324;17.574;2023-11-18T03:59:49;102162.42;;;3.79;94.44
69145;BME280;56251;50.324;17.574;2023-11-18T04:00:52;102171.05;;;3.80;95.04
69145;BME280;56251;50.324;17.574;2023-11-18T04:02:56;102165.04;;;3.74;95.41
69145;BME280;56251;50.324;17.574;2023-11-18T04:03:59;102173.74;;;3.78;95.25
69145;BME280;56251;50.324;17.574;2023-11-18T04:06:02;102166.44;;;3.81;95.56
69145;BME280;56251;50.324;17.574;2023-11-18T04:07:05;102170.12;;;3.81;95.28
69145;BME280;56251;50.324;17.574;2023-11-18T04:09:09;102174.65;;;3.84;95.73
69145;BME280;56251;50.324;17.574;2023-11-18T04:10:12;102177.10;;;3.73;95.95
69145;BME280;56251;50.324;17.574;2023-11-18T04:12:16;102183.72;;;3.77;96.77
69145;BME280;56251;50.324;17.574;2023-11-18T04:13:18;102187.70;;;3.75;96.49
69145;BME280;56251;50.324;17.574;2023-11-18T04:15:22;102183.52;;;3.77;97.07
69145;BME280;56251;50.324;17.574;2023-11-18T04:16:25;102191.73;;;3.78;97.01
69145;BME280;56251;50.324;17.574;2023-11-18T04:18:29;102185.05;;;3.77;96.06
69145;BME280;56251;50.324;17.574;2023-11-18T04:19:31;102191.32;;;3.72;96.01
69145;BME280;56251;50.324;17.574;2023-11-18T04:21:36;102192.34;;;3.66;96.74
69145;BME280;56251;50.324;17.574;2023-11-18T04:22:39;102198.16;;;3.74;96.83
69145;BME280;56251;50.324;17.574;2023-11-18T04:24:48;102199.22;;;3.77;96.55
69145;BME280;56251;50.324;17.574;2023-11-18T04:25:45;102194.16;;;3.82;96.81
69145;BME280;56251;50.324;17.574;2023-11-18T04:27:55;102193.30;;;3.76;96.46
69145;BME280;56251;50.324;17.574;2023-11-18T04:28:52;102198.31;;;3.79;96.63
69145;BME280;56251;50.324;17.574;2023-11-18T04:31:02;102203.06;;;3.69;96.00
69145;BME280;56251;50.324;17.574;2023-11-18T04:31:58;102207.52;;;3.73;96.05
69145;BME280;56251;50.324;17.574;2023-11-18T04:34:09;102202.19;;;3.77;96.08
69145;BME280;56251;50.324;17.574;2023-11-18T04:35:05;102203.16;;;3.78;95.83
69145;BME280;56251;50.324;17.574;2023-11-18T04:37:16;102199.85;;;3.76;95.66
69145;BME280;56251;50.324;17.574;2023-11-18T04:38:16;102202.08;;;3.81;95.33
69145;BME280;56251;50.324;17.574;2023-11-18T04:40:22;102197.70;;;3.80;95.56
69145;BME280;56251;50.324;17.574;2023-11-18T04:41:24;102199.82;;;3.84;95.36
69145;BME280;56251;50.324;17.574;2023-11-18T04:43:29;102202.14;;;3.96;95.02
69145;BME280;56251;50.324;17.574;2023-11-18T04:44:31;102204.32;;;3.95;94.50
69145;BME280;56251;50.324;17.574;2023-11-18T04:46:35;102206.55;;;3.93;93.94
69145;BME280;56251;50.324;17.574;2023-11-18T04:47:37;102206.34;;;3.86;93.83
69145;BME280;56251;50.324;17.574;2023-11-18T04:49:42;102208.12;;;3.98;93.74
69145;BME280;56251;50.324;17.574;2023-11-18T04:50:44;102203.16;;;4.02;93.37
69145;BME280;56251;50.324;17.574;2023-11-18T04:52:49;102206.71;;;4.02;93.09
69145;BME280;56251;50.324;17.574;2023-11-18T04:53:50;102210.52;;;4.00;93.19
69145;BME280;56251;50.324;17.574;2023-11-18T04:55:55;102211.47;;;4.10;93.32
69145;BME280;56251;50.324;17.574;2023-11-18T04:56:56;102208.32;;;4.12;92.72
69145;BME280;56251;50.324;17.574;2023-11-18T04:59:02;102207.45;;;4.08;92.23
69145;BME280;56251;50.324;17.574;2023-11-18T05:00:04;102211.09;;;4.05;92.19
69145;BME280;56251;50.324;17.574;2023-11-18T05:02:12;102218.27;;;4.10;92.79
69145;BME280;56251;50.324;17.574;2023-11-18T05:03:12;102213.73;;;4.10;92.13
69145;BME280;56251;50.324;17.574;2023-11-18T05:05:19;102217.64;;;4.09;92.83
69145;BME280;56251;50.324;17.574;2023-11-18T05:06:19;102217.98;;;4.06;92.95
69145;BME280;56251;50.324;17.574;2023-11-18T05:08:25;102220.55;;;4.13;92.37
69145;BME280;56251;50.324;17.574;2023-11-18T05:09:25;102222.04;;;4.11;92.07
69145;BME280;56251;50.324;17.574;2023-11-18T05:11:32;102216.54;;;3.90;93.24
69145;BME280;56251;50.324;17.574;2023-11-18T05:12:33;102218.00;;;3.89;93.50
69145;BME280;56251;50.324;17.574;2023-11-18T05:14:38;102224.03;;;3.90;92.99
69145;BME280;56251;50.324;17.574;2023-11-18T05:15:39;102217.41;;;3.76;93.83
69145;BME280;56251;50.324;17.574;2023-11-18T05:17:44;102217.46;;;3.82;94.17
69145;BME280;56251;50.324;17.574;2023-11-18T05:18:45;102220.02;;;3.75;94.27
69145;BME280;56251;50.324;17.574;2023-11-18T05:20:50;102220.88;;;3.73;95.01
69145;BME280;56251;50.324;17.574;2023-11-18T05:21:51;102233.74;;;3.69;95.29
69145;BME280;56251;50.324;17.574;2023-11-18T05:23:56;102226.19;;;3.63;95.17
69145;BME280;56251;50.324;17.574;2023-11-18T05:24:58;102227.17;;;3.66;95.54
69145;BME280;56251;50.324;17.574;2023-11-18T05:27:03;102227.30;;;3.68;95.82
69145;BME280;56251;50.324;17.574;2023-11-18T05:28:05;102225.03;;;3.76;95.71
69145;BME280;56251;50.324;17.574;2023-11-18T05:30:10;102223.98;;;3.74;95.53
69145;BME280;56251;50.324;17.574;2023-11-18T05:31:16;102225.64;;;3.74;95.43
69145;BME280;56251;50.324;17.574;2023-11-18T05:33:17;102231.98;;;3.85;94.89
69145;BME280;56251;50.324;17.574;2023-11-18T05:34:22;102222.69;;;3.79;94.89
69145;BME280;56251;50.324;17.574;2023-11-18T05:36:24;102228.79;;;3.58;95.08
69145;BME280;56251;50.324;17.574;2023-11-18T05:37:30;102236.30;;;3.57;94.94
69145;BME280;56251;50.324;17.574;2023-11-18T05:39:34;102240.80;;;3.65;94.94
69145;BME280;56251;50.324;17.574;2023-11-18T05:40:39;102237.48;;;3.71;95.05
69145;BME280;56251;50.324;17.574;2023-11-18T05:42:42;102243.07;;;3.73;94.64
69145;BME280;56251;50.324;17.574;2023-11-18T05:43:47;102244.65;;;3.60;94.62
69145;BME280;56251;50.324;17.574;2023-11-18T05:45:50;102253.37;;;3.44;94.66
69145;BME280;56251;50.324;17.574;2023-11-18T05:46:55;102252.73;;;3.35;94.78
69145;BME280;56251;50.324;17.574;2023-11-18T05:49:25;102253.88;;;3.36;94.38
69145;BME280;56251;50.324;17.574;2023-11-18T05:50:02;102251.63;;;3.44;94.22
69145;BME280;56251;50.324;17.574;2023-11-18T05:52:32;102257.77;;;3.27;94.14
69145;BME280;56251;50.324;17.574;2023-11-18T05:53:10;102257.98;;;3.14;94.33
69145;BME280;56251;50.324;17.574;2023-11-18T05:55:38;102258.80;;;3.30;94.57
69145;BME280;56251;50.324;17.574;2023-11-18T05:56:16;102258.98;;;3.40;94.32
69145;BME280;56251;50.324;17.574;2023-11-18T05:58:45;102258.44;;;3.32;94.09
69145;BME280;56251;50.324;17.574;2023-11-18T05:59:23;102263.40;;;3.32;94.04
69145;BME280;56251;50.324;17.574;2023-11-18T06:01:51;102263.86;;;3.40;93.95
69145;BME280;56251;50.324;17.574;2023-11-18T06:02:29;102261.99;;;3.32;94.09
69145;BME280;56251;50.324;17.574;2023-11-18T06:04:57;102266.18;;;3.43;94.44
69145;BME280;56251;50.324;17.574;2023-11-18T06:05:36;102266.62;;;3.44;94.42
69145;BME280;56251;50.324;17.574;2023-11-18T06:08:04;102266.48;;;3.59;93.85
69145;BME280;56251;50.324;17.574;2023-11-18T06:08:42;102268.16;;;3.62;93.69
69145;BME280;56251;50.324;17.574;2023-11-18T06:11:14;102269.85;;;3.60;94.13
69145;BME280;56251;50.324;17.574;2023-11-18T06:11:49;102269.75;;;3.50;94.93
69145;BME280;56251;50.324;17.574;2023-11-18T06:14:21;102271.21;;;3.71;94.94
69145;BME280;56251;50.324;17.574;2023-11-18T06:14:56;102277.51;;;3.60;95.11
69145;BME280;56251;50.324;17.574;2023-11-18T06:17:27;102275.71;;;3.79;95.15
69145;BME280;56251;50.324;17.574;2023-11-18T06:18:04;102280.73;;;3.76;95.34
69145;BME280;56251;50.324;17.574;2023-11-18T06:20:34;102280.04;;;3.93;95.08
69145;BME280;56251;50.324;17.574;2023-11-18T06:21:11;102282.83;;;3.95;94.98
69145;BME280;56251;50.324;17.574;2023-11-18T06:23:42;102282.42;;;3.87;95.54
69145;BME280;56251;50.324;17.574;2023-11-18T06:24:18;102277.41;;;3.85;96.02
69145;BME280;56251;50.324;17.574;2023-11-18T06:26:48;102283.85;;;3.91;96.03
69145;BME280;56251;50.324;17.574;2023-11-18T06:27:25;102283.98;;;3.90;96.02
69145;BME280;56251;50.324;17.574;2023-11-18T06:29:55;102280.91;;;3.93;96.14
69145;BME280;56251;50.324;17.574;2023-11-18T06:30:32;102279.21;;;4.03;96.11
69145;BME280;56251;50.324;17.574;2023-11-18T06:33:01;102282.73;;;4.08;96.14
69145;BME280;56251;50.324;17.574;2023-11-18T06:33:42;102285.97;;;4.05;96.11
69145;BME280;56251;50.324;17.574;2023-11-18T06:36:09;102291.74;;;4.04;95.61
69145;BME280;56251;50.324;17.574;2023-11-18T06:36:57;102292.23;;;4.04;95.67
69145;BME280;56251;50.324;17.574;2023-11-18T06:39:16;102293.72;;;4.04;95.61
69145;BME280;56251;50.324;17.574;2023-11-18T06:40:03;102297.20;;;4.04;95.35
69145;BME280;56251;50.324;17.574;2023-11-18T06:42:30;102300.57;;;4.11;95.11
69145;BME280;56251;50.324;17.574;2023-11-18T06:43:11;102299.32;;;4.16;95.26
69145;BME280;56251;50.324;17.574;2023-11-18T06:45:36;102300.24;;;4.06;94.63
69145;BME280;56251;50.324;17.574;2023-11-18T06:46:18;102304.44;;;3.95;94.82
69145;BME280;56251;50.324;17.574;2023-11-18T06:48:43;102301.61;;;4.08;95.02
69145;BME280;56251;50.324;17.574;2023-11-18T06:49:28;102301.98;;;4.01;95.17
69145;BME280;56251;50.324;17.574;2023-11-18T06:51:49;102308.66;;;4.08;95.44
69145;BME280;56251;50.324;17.574;2023-11-18T06:52:37;102307.80;;;4.04;95.37
69145;BME280;56251;50.324;17.574;2023-11-18T06:54:56;102306.71;;;4.10;96.18
69145;BME280;56251;50.324;17.574;2023-11-18T06:55:44;102310.91;;;4.09;96.20
69145;BME280;56251;50.324;17.574;2023-11-18T06:58:03;102326.27;;;3.92;96.29
69145;BME280;56251;50.324;17.574;2023-11-18T06:58:51;102331.75;;;3.90;96.54
69145;BME280;56251;50.324;17.574;2023-11-18T07:01:09;102338.34;;;3.66;98.60
69145;BME280;56251;50.324;17.574;2023-11-18T07:01:57;102344.87;;;3.64;98.76
69145;BME280;56251;50.324;17.574;2023-11-18T07:04:16;102350.68;;;3.39;100.00
69145;BME280;56251;50.324;17.574;2023-11-18T07:05:04;102342.89;;;3.36;100.00
69145;BME280;56251;50.324;17.574;2023-11-18T07:07:22;102349.59;;;3.43;100.00
69145;BME280;56251;50.324;17.574;2023-11-18T07:08:11;102342.94;;;3.48;100.00
69145;BME280;56251;50.324;17.574;2023-11-18T07:10:28;102348.57;;;3.60;100.00
69145;BME280;56251;50.324;17.574;2023-11-18T07:11:19;102351.45;;;3.58;100.00
69145;BME280;56251;50.324;17.574;2023-11-18T07:13:35;102346.32;;;3.75;100.00
69145;BME280;56251;50.324;17.574;2023-11-18T07:14:28;102349.88;;;3.80;99.95
69145;BME280;56251;50.324;17.574;2023-11-18T07:16:42;102355.83;;;3.93;99.22
69145;BME280;56251;50.324;17.574;2023-11-18T07:17:34;102354.11;;;3.94;99.07
69145;BME280;56251;50.324;17.574;2023-11-18T07:19:49;102360.25;;;4.08;98.48
69145;BME280;56251;50.324;17.574;2023-11-18T07:20:40;102365.05;;;4.01;97.71
69145;BME280;56251;50.324;17.574;2023-11-18T07:22:55;102366.06;;;3.69;97.50
69145;BME280;56251;50.324;17.574;2023-11-18T07:23:47;102371.45;;;3.72;97.51
69145;BME280;56251;50.324;17.574;2023-11-18T07:26:02;102373.79;;;3.67;97.10
69145;BME280;56251;50.324;17.574;2023-11-18T07:26:53;102366.43;;;3.67;96.69
69145;BME280;56251;50.324;17.574;2023-11-18T07:29:09;102370.44;;;3.40;97.65
69145;BME280;56251;50.324;17.574;2023-11-18T07:30:00;102372.75;;;3.52;97.88
69145;BME280;56251;50.324;17.574;2023-11-18T07:32:15;102376.66;;;3.57;98.09
69145;BME280;56251;50.324;17.574;2023-11-18T07:33:06;102379.17;;;3.55;98.39
69145;BME280;56251;50.324;17.574;2023-11-18T07:35:23;102382.38;;;3.44;98.61
69145;BME280;56251;50.324;17.574;2023-11-18T07:36:13;102383.61;;;3.54;98.57
69145;BME280;56251;50.324;17.574;2023-11-18T07:38:29;102386.67;;;3.63;98.01
69145;BME280;56251;50.324;17.574;2023-11-18T07:39:21;102389.28;;;3.64;98.17
69145;BME280;56251;50.324;17.574;2023-11-18T07:41:37;102392.09;;;3.76;98.37
69145;BME280;56251;50.324;17.574;2023-11-18T07:42:30;102390.23;;;3.78;98.28
69145;BME280;56251;50.324;17.574;2023-11-18T07:44:44;102393.64;;;3.89;97.62
69145;BME280;56251;50.324;17.574;2023-11-18T07:45:43;102386.18;;;3.89;97.56
69145;BME280;56251;50.324;17.574;2023-11-18T07:47:56;102387.88;;;3.92;97.33
69145;BME280;56251;50.324;17.574;2023-11-18T07:48:51;102384.13;;;3.94;96.96
69145;BME280;56251;50.324;17.574;2023-11-18T07:51:03;102381.43;;;4.16;96.88
69145;BME280;56251;50.324;17.574;2023-11-18T07:51:57;102384.16;;;4.06;96.31
69145;BME280;56251;50.324;17.574;2023-11-18T07:54:09;102384.05;;;4.17;96.33
69145;BME280;56251;50.324;17.574;2023-11-18T07:55:05;102381.33;;;4.21;95.56
69145;BME280;56251;50.324;17.574;2023-11-18T07:57:15;102381.92;;;4.05;94.94
69145;BME280;56251;50.324;17.574;2023-11-18T07:58:11;102390.01;;;4.02;95.15
69145;BME280;56251;50.324;17.574;2023-11-18T08:00:21;102394.95;;;3.92;94.86
69145;BME280;56251;50.324;17.574;2023-11-18T08:01:18;102390.77;;;3.93;95.09
69145;BME280;56251;50.324;17.574;2023-11-18T08:03:29;102403.15;;;3.98;95.35
69145;BME280;56251;50.324;17.574;2023-11-18T08:04:30;102401.71;;;4.06;95.00
69145;BME280;56251;50.324;17.574;2023-11-18T08:06:42;102391.80;;;4.09;94.25
69145;BME280;56251;50.324;17.574;2023-11-18T08:07:37;102385.14;;;4.12;94.18
69145;BME280;56251;50.324;17.574;2023-11-18T08:09:49;102377.76;;;4.22;92.64
69145;BME280;56251;50.324;17.574;2023-11-18T08:10:44;102377.13;;;4.12;90.39